Westford, Pennsylvania
Current Conditions -  °F | °C
As of 2:53 PM on Saturday 25 Oct 2014 (Local Time) from KGKJ Reporting Station
Overcast Overcast  
Wind Chill: 64°   Ceiling: 3800
Heat Index: 64°   Visibility: 10mi
Dew Point: 49°   Wind: 18mph
Humidity: 58%   Direction: 250°WSW
Pressure: 29.74"   Gusts: 24mph
Location:  41.5078°N, 80.4555°W
Report Text: KGKJ 251853Z AUTO 25016G21KT 10SM BKN038 OVC047 18/09 A2974 RMK AO2 SLP070 T01780094 TSNO $
Loading
Personal Weather Stations






























Interactive Weather Map
Tropical Storm Tracking
New forecast layout! Learn more

10-Day Weather Forecast

Advertisements
Track Severe Weather on mobile